sensor_id;sensor_type;location;lat;lon;timestamp;temperature;humidity
53422;DHT22;39319;52.944;5.928;2022-09-27T00:02:14;12.20;99.90
53422;DHT22;39319;52.944;5.928;2022-09-27T00:04:40;12.20;99.90
53422;DHT22;39319;52.944;5.928;2022-09-27T00:07:06;12.20;99.90
53422;DHT22;39319;52.944;5.928;2022-09-27T00:09:32;12.20;99.90
53422;DHT22;39319;52.944;5.928;2022-09-27T00:11:58;12.20;99.90
53422;DHT22;39319;52.944;5.928;2022-09-27T00:14:24;12.20;99.90
53422;DHT22;39319;52.944;5.928;2022-09-27T00:16:50;12.20;99.90
53422;DHT22;39319;52.944;5.928;2022-09-27T00:19:20;12.10;99.90
53422;DHT22;39319;52.944;5.928;2022-09-27T00:21:48;12.10;99.90
53422;DHT22;39319;52.944;5.928;2022-09-27T00:24:17;12.10;99.90
53422;DHT22;39319;52.944;5.928;2022-09-27T00:26:43;12.00;99.90
53422;DHT22;39319;52.944;5.928;2022-09-27T00:29:09;12.00;99.90
53422;DHT22;39319;52.944;5.928;2022-09-27T00:31:36;12.00;99.90
53422;DHT22;39319;52.944;5.928;2022-09-27T00:34:03;12.10;99.90
53422;DHT22;39319;52.944;5.928;2022-09-27T00:36:31;12.00;99.90
53422;DHT22;39319;52.944;5.928;2022-09-27T00:38:58;12.00;99.90
53422;DHT22;39319;52.944;5.928;2022-09-27T00:41:29;12.00;99.90
53422;DHT22;39319;52.944;5.928;2022-09-27T00:43:59;12.00;99.90
53422;DHT22;39319;52.944;5.928;2022-09-27T00:46:45;12.00;99.90
53422;DHT22;39319;52.944;5.928;2022-09-27T00:49:18;12.00;99.90
53422;DHT22;39319;52.944;5.928;2022-09-27T00:51:47;12.00;99.90
53422;DHT22;39319;52.944;5.928;2022-09-27T00:54:17;12.00;99.90
53422;DHT22;39319;52.944;5.928;2022-09-27T00:56:44;12.00;99.90
53422;DHT22;39319;52.944;5.928;2022-09-27T01:01:40;12.00;99.90
53422;DHT22;39319;52.944;5.928;2022-09-27T01:04:09;12.00;99.90
53422;DHT22;39319;52.944;5.928;2022-09-27T01:06:35;12.00;99.90
53422;DHT22;39319;52.944;5.928;2022-09-27T01:09:04;12.00;99.90
53422;DHT22;39319;52.944;5.928;2022-09-27T01:31:23;12.00;99.90
53422;DHT22;39319;52.944;5.928;2022-09-27T01:34:14;12.00;99.90
53422;DHT22;39319;52.944;5.928;2022-09-27T01:42:26;11.90;99.90
53422;DHT22;39319;52.944;5.928;2022-09-27T01:47:51;11.90;99.90
53422;DHT22;39319;52.944;5.928;2022-09-27T01:53:19;11.90;99.90
53422;DHT22;39319;52.944;5.928;2022-09-27T01:55:47;11.90;99.90
53422;DHT22;39319;52.944;5.928;2022-09-27T01:58:21;11.80;99.90
53422;DHT22;39319;52.944;5.928;2022-09-27T02:00:50;11.80;99.90
53422;DHT22;39319;52.944;5.928;2022-09-27T02:03:39;11.80;99.90
53422;DHT22;39319;52.944;5.928;2022-09-27T02:06:16;11.80;99.90
53422;DHT22;39319;52.944;5.928;2022-09-27T02:09:08;11.70;99.90
53422;DHT22;39319;52.944;5.928;2022-09-27T02:11:38;11.80;99.90
53422;DHT22;39319;52.944;5.928;2022-09-27T02:25:34;11.70;99.90
53422;DHT22;39319;52.944;5.928;2022-09-27T02:30:32;11.70;99.90
53422;DHT22;39319;52.944;5.928;2022-09-27T02:32:58;11.70;99.90
53422;DHT22;39319;52.944;5.928;2022-09-27T02:35:33;11.70;99.90
53422;DHT22;39319;52.944;5.928;2022-09-27T02:37:59;11.60;99.90
53422;DHT22;39319;52.944;5.928;2022-09-27T02:40:29;11.70;99.90
53422;DHT22;39319;52.944;5.928;2022-09-27T02:42:56;11.60;99.90
53422;DHT22;39319;52.944;5.928;2022-09-27T02:45:22;11.60;99.90
53422;DHT22;39319;52.944;5.928;2022-09-27T03:06:45;11.60;99.90
53422;DHT22;39319;52.944;5.928;2022-09-27T03:09:23;11.50;99.90
53422;DHT22;39319;52.944;5.928;2022-09-27T03:11:49;11.50;99.90
53422;DHT22;39319;52.944;5.928;2022-09-27T03:14:15;11.50;99.90
53422;DHT22;39319;52.944;5.928;2022-09-27T03:16:41;11.50;99.90
53422;DHT22;39319;52.944;5.928;2022-09-27T03:19:08;11.50;99.90
53422;DHT22;39319;52.944;5.928;2022-09-27T03:21:34;11.50;99.90
53422;DHT22;39319;52.944;5.928;2022-09-27T03:24:01;11.50;99.90
53422;DHT22;39319;52.944;5.928;2022-09-27T03:26:26;11.50;99.90
53422;DHT22;39319;52.944;5.928;2022-09-27T03:28:52;11.50;99.90
53422;DHT22;39319;52.944;5.928;2022-09-27T03:31:18;11.50;99.90
53422;DHT22;39319;52.944;5.928;2022-09-27T03:33:44;11.50;99.90
53422;DHT22;39319;52.944;5.928;2022-09-27T03:36:10;11.50;99.90
53422;DHT22;39319;52.944;5.928;2022-09-27T03:38:36;11.50;99.90
53422;DHT22;39319;52.944;5.928;2022-09-27T03:41:03;11.50;99.90
53422;DHT22;39319;52.944;5.928;2022-09-27T03:43:29;11.50;99.90
53422;DHT22;39319;52.944;5.928;2022-09-27T03:45:55;11.50;99.90
53422;DHT22;39319;52.944;5.928;2022-09-27T03:48:21;11.50;99.90
53422;DHT22;39319;52.944;5.928;2022-09-27T03:50:47;11.50;99.90
53422;DHT22;39319;52.944;5.928;2022-09-27T03:53:12;11.40;99.90
53422;DHT22;39319;52.944;5.928;2022-09-27T03:55:38;11.40;99.90
53422;DHT22;39319;52.944;5.928;2022-09-27T03:58:04;11.30;99.90
53422;DHT22;39319;52.944;5.928;2022-09-27T04:00:30;11.30;99.90
53422;DHT22;39319;52.944;5.928;2022-09-27T04:02:57;11.20;99.90
53422;DHT22;39319;52.944;5.928;2022-09-27T04:05:25;11.20;99.90
53422;DHT22;39319;52.944;5.928;2022-09-27T04:07:51;11.20;99.90
53422;DHT22;39319;52.944;5.928;2022-09-27T04:10:17;11.20;99.90
53422;DHT22;39319;52.944;5.928;2022-09-27T04:12:43;11.20;99.90
53422;DHT22;39319;52.944;5.928;2022-09-27T04:15:10;11.10;99.90
53422;DHT22;39319;52.944;5.928;2022-09-27T04:17:35;11.10;99.90
53422;DHT22;39319;52.944;5.928;2022-09-27T04:20:01;11.10;99.90
53422;DHT22;39319;52.944;5.928;2022-09-27T04:22:28;11.00;99.90
53422;DHT22;39319;52.944;5.928;2022-09-27T04:24:54;11.00;99.90
53422;DHT22;39319;52.944;5.928;2022-09-27T04:27:20;11.00;99.90
53422;DHT22;39319;52.944;5.928;2022-09-27T04:29:47;10.90;99.90
53422;DHT22;39319;52.944;5.928;2022-09-27T04:32:13;10.90;99.90
53422;DHT22;39319;52.944;5.928;2022-09-27T04:34:39;10.90;99.90
53422;DHT22;39319;52.944;5.928;2022-09-27T04:37:24;10.80;99.90
53422;DHT22;39319;52.944;5.928;2022-09-27T04:39:50;10.70;99.90
53422;DHT22;39319;52.944;5.928;2022-09-27T04:42:16;10.70;99.90
53422;DHT22;39319;52.944;5.928;2022-09-27T04:44:43;10.60;99.90
53422;DHT22;39319;52.944;5.928;2022-09-27T04:47:09;10.60;99.90
53422;DHT22;39319;52.944;5.928;2022-09-27T04:49:38;10.60;99.90
53422;DHT22;39319;52.944;5.928;2022-09-27T04:52:04;10.50;99.90
53422;DHT22;39319;52.944;5.928;2022-09-27T04:54:31;10.50;99.90
53422;DHT22;39319;52.944;5.928;2022-09-27T04:56:57;10.50;99.90
53422;DHT22;39319;52.944;5.928;2022-09-27T04:59:23;10.50;99.90
53422;DHT22;39319;52.944;5.928;2022-09-27T05:01:49;10.50;99.90
53422;DHT22;39319;52.944;5.928;2022-09-27T05:04:15;10.50;99.90
53422;DHT22;39319;52.944;5.928;2022-09-27T05:06:41;10.50;99.90
53422;DHT22;39319;52.944;5.928;2022-09-27T05:09:06;10.50;99.90
53422;DHT22;39319;52.944;5.928;2022-09-27T05:11:32;10.50;99.90
53422;DHT22;39319;52.944;5.928;2022-09-27T05:13:58;10.50;99.90
53422;DHT22;39319;52.944;5.928;2022-09-27T05:16:24;10.50;99.90
53422;DHT22;39319;52.944;5.928;2022-09-27T05:18:50;10.40;99.90
53422;DHT22;39319;52.944;5.928;2022-09-27T05:21:16;10.40;99.90
53422;DHT22;39319;52.944;5.928;2022-09-27T05:23:42;10.30;99.90
53422;DHT22;39319;52.944;5.928;2022-09-27T05:26:08;10.30;99.90
53422;DHT22;39319;52.944;5.928;2022-09-27T05:28:34;10.30;99.90
53422;DHT22;39319;52.944;5.928;2022-09-27T05:31:00;10.30;99.90
53422;DHT22;39319;52.944;5.928;2022-09-27T05:33:26;10.20;99.90
53422;DHT22;39319;52.944;5.928;2022-09-27T05:35:53;10.20;99.90
53422;DHT22;39319;52.944;5.928;2022-09-27T05:38:19;10.20;99.90
53422;DHT22;39319;52.944;5.928;2022-09-27T05:40:45;10.10;99.90
53422;DHT22;39319;52.944;5.928;2022-09-27T05:43:13;10.10;99.90
53422;DHT22;39319;52.944;5.928;2022-09-27T05:45:40;10.10;99.90
53422;DHT22;39319;52.944;5.928;2022-09-27T05:48:06;10.10;99.90
53422;DHT22;39319;52.944;5.928;2022-09-27T05:50:32;10.10;99.90
53422;DHT22;39319;52.944;5.928;2022-09-27T05:52:57;10.20;99.90
53422;DHT22;39319;52.944;5.928;2022-09-27T05:55:23;10.20;99.90
53422;DHT22;39319;52.944;5.928;2022-09-27T05:58:03;10.20;99.90
53422;DHT22;39319;52.944;5.928;2022-09-27T06:00:29;10.30;99.90
53422;DHT22;39319;52.944;5.928;2022-09-27T06:02:57;10.30;99.90
53422;DHT22;39319;52.944;5.928;2022-09-27T06:05:24;10.30;99.90
53422;DHT22;39319;52.944;5.928;2022-09-27T06:07:51;10.30;99.90
53422;DHT22;39319;52.944;5.928;2022-09-27T06:10:18;10.40;99.90
53422;DHT22;39319;52.944;5.928;2022-09-27T06:12:44;10.40;99.90
53422;DHT22;39319;52.944;5.928;2022-09-27T06:15:11;10.40;99.90
53422;DHT22;39319;52.944;5.928;2022-09-27T06:17:37;10.40;99.90
53422;DHT22;39319;52.944;5.928;2022-09-27T06:20:04;10.40;99.90
53422;DHT22;39319;52.944;5.928;2022-09-27T06:22:30;10.40;99.90
53422;DHT22;39319;52.944;5.928;2022-09-27T06:24:57;10.40;99.90
53422;DHT22;39319;52.944;5.928;2022-09-27T06:27:24;10.50;99.90
53422;DHT22;39319;52.944;5.928;2022-09-27T06:29:50;10.50;99.90
53422;DHT22;39319;52.944;5.928;2022-09-27T06:32:17;10.50;99.90
53422;DHT22;39319;52.944;5.928;2022-09-27T06:34:42;10.50;99.90
53422;DHT22;39319;52.944;5.928;2022-09-27T06:37:10;10.60;99.90
53422;DHT22;39319;52.944;5.928;2022-09-27T06:39:36;10.60;99.90
53422;DHT22;39319;52.944;5.928;2022-09-27T06:42:03;10.70;99.90
53422;DHT22;39319;52.944;5.928;2022-09-27T06:44:28;10.70;99.90
53422;DHT22;39319;52.944;5.928;2022-09-27T06:46:54;10.80;99.90
53422;DHT22;39319;52.944;5.928;2022-09-27T06:49:23;10.80;99.90
53422;DHT22;39319;52.944;5.928;2022-09-27T06:51:50;10.80;99.90
53422;DHT22;39319;52.944;5.928;2022-09-27T06:54:17;10.90;99.90
53422;DHT22;39319;52.944;5.928;2022-09-27T06:56:46;11.00;99.90
53422;DHT22;39319;52.944;5.928;2022-09-27T06:59:12;11.00;99.90
53422;DHT22;39319;52.944;5.928;2022-09-27T07:01:56;11.00;99.90
53422;DHT22;39319;52.944;5.928;2022-09-27T07:04:21;11.10;99.90
53422;DHT22;39319;52.944;5.928;2022-09-27T07:06:48;11.30;99.90
53422;DHT22;39319;52.944;5.928;2022-09-27T07:09:14;11.30;99.90
53422;DHT22;39319;52.944;5.928;2022-09-27T07:11:40;11.40;99.90
53422;DHT22;39319;52.944;5.928;2022-09-27T07:14:07;11.50;99.90
53422;DHT22;39319;52.944;5.928;2022-09-27T07:16:35;11.60;99.90
53422;DHT22;39319;52.944;5.928;2022-09-27T07:19:01;11.70;99.90
53422;DHT22;39319;52.944;5.928;2022-09-27T07:21:27;11.70;99.90
53422;DHT22;39319;52.944;5.928;2022-09-27T07:23:52;11.70;99.90
53422;DHT22;39319;52.944;5.928;2022-09-27T07:26:18;11.80;99.90
53422;DHT22;39319;52.944;5.928;2022-09-27T07:28:44;11.90;99.90
53422;DHT22;39319;52.944;5.928;2022-09-27T07:31:11;11.80;99.90
53422;DHT22;39319;52.944;5.928;2022-09-27T07:33:37;11.90;99.90
53422;DHT22;39319;52.944;5.928;2022-09-27T07:36:08;11.90;99.90
53422;DHT22;39319;52.944;5.928;2022-09-27T07:38:35;11.90;99.90
53422;DHT22;39319;52.944;5.928;2022-09-27T07:41:11;11.90;99.90
53422;DHT22;39319;52.944;5.928;2022-09-27T07:43:38;11.90;99.90
53422;DHT22;39319;52.944;5.928;2022-09-27T07:46:05;11.90;99.90
53422;DHT22;39319;52.944;5.928;2022-09-27T07:48:31;11.90;99.90
53422;DHT22;39319;52.944;5.928;2022-09-27T07:50:57;11.90;99.90
53422;DHT22;39319;52.944;5.928;2022-09-27T07:53:22;11.90;99.90
53422;DHT22;39319;52.944;5.928;2022-09-27T07:55:52;12.00;99.90
53422;DHT22;39319;52.944;5.928;2022-09-27T07:58:21;12.00;99.90
53422;DHT22;39319;52.944;5.928;2022-09-27T08:00:47;12.10;99.90
53422;DHT22;39319;52.944;5.928;2022-09-27T08:03:14;12.10;99.90
53422;DHT22;39319;52.944;5.928;2022-09-27T08:05:42;12.10;99.90
53422;DHT22;39319;52.944;5.928;2022-09-27T08:08:09;12.10;99.90
53422;DHT22;39319;52.944;5.928;2022-09-27T08:10:34;12.00;99.90
53422;DHT22;39319;52.944;5.928;2022-09-27T08:13:01;11.90;99.90
53422;DHT22;39319;52.944;5.928;2022-09-27T08:15:30;11.90;99.90
53422;DHT22;39319;52.944;5.928;2022-09-27T08:17:56;11.90;99.90
53422;DHT22;39319;52.944;5.928;2022-09-27T08:20:23;11.90;99.90
53422;DHT22;39319;52.944;5.928;2022-09-27T08:22:48;11.90;99.90
53422;DHT22;39319;52.944;5.928;2022-09-27T08:25:15;11.90;99.90
53422;DHT22;39319;52.944;5.928;2022-09-27T08:27:41;11.90;99.90
53422;DHT22;39319;52.944;5.928;2022-09-27T08:30:08;12.00;99.90
53422;DHT22;39319;52.944;5.928;2022-09-27T08:32:34;11.90;99.90
53422;DHT22;39319;52.944;5.928;2022-09-27T08:35:01;12.00;99.90
53422;DHT22;39319;52.944;5.928;2022-09-27T08:37:27;12.00;99.90
53422;DHT22;39319;52.944;5.928;2022-09-27T08:39:53;12.00;99.90
53422;DHT22;39319;52.944;5.928;2022-09-27T08:42:41;12.00;99.90
53422;DHT22;39319;52.944;5.928;2022-09-27T08:45:52;12.00;99.90
53422;DHT22;39319;52.944;5.928;2022-09-27T08:48:20;12.10;99.90
53422;DHT22;39319;52.944;5.928;2022-09-27T08:50:47;12.10;99.90
53422;DHT22;39319;52.944;5.928;2022-09-27T08:53:19;12.20;99.90
53422;DHT22;39319;52.944;5.928;2022-09-27T08:55:48;12.20;99.90
53422;DHT22;39319;52.944;5.928;2022-09-27T08:58:27;12.30;99.90
53422;DHT22;39319;52.944;5.928;2022-09-27T09:00:56;12.30;99.90
53422;DHT22;39319;52.944;5.928;2022-09-27T09:03:35;12.40;99.90
53422;DHT22;39319;52.944;5.928;2022-09-27T09:06:22;12.40;99.90
53422;DHT22;39319;52.944;5.928;2022-09-27T09:14:51;12.60;99.90
53422;DHT22;39319;52.944;5.928;2022-09-27T09:25:56;12.70;99.90
53422;DHT22;39319;52.944;5.928;2022-09-27T09:39:17;12.80;99.90
53422;DHT22;39319;52.944;5.928;2022-09-27T09:47:03;12.90;99.90
53422;DHT22;39319;52.944;5.928;2022-09-27T09:49:43;13.00;99.90
53422;DHT22;39319;52.944;5.928;2022-09-27T09:52:26;13.10;99.90
53422;DHT22;39319;52.944;5.928;2022-09-27T09:55:05;13.10;99.60
53422;DHT22;39319;52.944;5.928;2022-09-27T09:57:43;13.10;99.40
53422;DHT22;39319;52.944;5.928;2022-09-27T10:00:16;13.20;98.80
53422;DHT22;39319;52.944;5.928;2022-09-27T10:02:47;13.10;98.90
53422;DHT22;39319;52.944;5.928;2022-09-27T10:05:22;13.10;99.40
53422;DHT22;39319;52.944;5.928;2022-09-27T10:07:51;13.00;99.70
53422;DHT22;39319;52.944;5.928;2022-09-27T10:10:21;13.00;99.50
53422;DHT22;39319;52.944;5.928;2022-09-27T10:12:47;12.90;99.70
53422;DHT22;39319;52.944;5.928;2022-09-27T10:15:22;12.80;99.90
53422;DHT22;39319;52.944;5.928;2022-09-27T10:17:54;12.70;99.90
53422;DHT22;39319;52.944;5.928;2022-09-27T10:22:59;12.60;99.90
53422;DHT22;39319;52.944;5.928;2022-09-27T10:28:32;12.50;99.90
53422;DHT22;39319;52.944;5.928;2022-09-27T10:31:01;12.60;99.90
53422;DHT22;39319;52.944;5.928;2022-09-27T10:33:29;12.60;99.90
53422;DHT22;39319;52.944;5.928;2022-09-27T10:35:56;12.70;99.90
53422;DHT22;39319;52.944;5.928;2022-09-27T10:38:35;12.80;99.90
53422;DHT22;39319;52.944;5.928;2022-09-27T10:43:50;13.00;99.90
53422;DHT22;39319;52.944;5.928;2022-09-27T10:46:31;13.20;99.90
53422;DHT22;39319;52.944;5.928;2022-09-27T10:49:18;13.20;99.30
53422;DHT22;39319;52.944;5.928;2022-09-27T10:51:45;13.40;99.90
53422;DHT22;39319;52.944;5.928;2022-09-27T10:54:34;13.60;99.70
53422;DHT22;39319;52.944;5.928;2022-09-27T10:57:03;13.80;99.90
53422;DHT22;39319;52.944;5.928;2022-09-27T10:59:35;14.20;99.90
53422;DHT22;39319;52.944;5.928;2022-09-27T11:02:04;14.40;98.60
53422;DHT22;39319;52.944;5.928;2022-09-27T11:04:37;14.60;97.80
53422;DHT22;39319;52.944;5.928;2022-09-27T11:07:16;14.70;97.90
53422;DHT22;39319;52.944;5.928;2022-09-27T11:09:53;14.80;97.30
53422;DHT22;39319;52.944;5.928;2022-09-27T11:12:28;14.80;96.80
53422;DHT22;39319;52.944;5.928;2022-09-27T11:14:58;14.80;97.20
53422;DHT22;39319;52.944;5.928;2022-09-27T11:17:44;14.80;96.60
53422;DHT22;39319;52.944;5.928;2022-09-27T11:28:47;15.10;97.20
53422;DHT22;39319;52.944;5.928;2022-09-27T11:34:30;14.90;97.00
53422;DHT22;39319;52.944;5.928;2022-09-27T11:40:26;14.80;97.30
53422;DHT22;39319;52.944;5.928;2022-09-27T11:48:57;14.60;97.00
53422;DHT22;39319;52.944;5.928;2022-09-27T11:54:50;14.70;97.30
53422;DHT22;39319;52.944;5.928;2022-09-27T12:10:50;14.90;96.50
53422;DHT22;39319;52.944;5.928;2022-09-27T12:13:32;15.00;96.10
53422;DHT22;39319;52.944;5.928;2022-09-27T12:15:59;15.00;96.10
53422;DHT22;39319;52.944;5.928;2022-09-27T12:18:29;15.20;96.10
53422;DHT22;39319;52.944;5.928;2022-09-27T12:20:59;15.30;96.40
53422;DHT22;39319;52.944;5.928;2022-09-27T12:23:54;15.50;95.70
53422;DHT22;39319;52.944;5.928;2022-09-27T12:26:33;15.60;94.50
53422;DHT22;39319;52.944;5.928;2022-09-27T12:29:25;15.60;94.30
53422;DHT22;39319;52.944;5.928;2022-09-27T12:37:23;15.50;93.50
53422;DHT22;39319;52.944;5.928;2022-09-27T12:40:00;15.50;94.50
53422;DHT22;39319;52.944;5.928;2022-09-27T12:42:42;15.40;93.70
53422;DHT22;39319;52.944;5.928;2022-09-27T12:45:12;15.30;93.80
53422;DHT22;39319;52.944;5.928;2022-09-27T12:50:54;15.00;95.50
53422;DHT22;39319;52.944;5.928;2022-09-27T12:56:37;14.70;95.60
53422;DHT22;39319;52.944;5.928;2022-09-27T12:59:26;14.60;96.10
53422;DHT22;39319;52.944;5.928;2022-09-27T13:07:29;14.50;96.20
53422;DHT22;39319;52.944;5.928;2022-09-27T13:13:02;14.40;96.30
53422;DHT22;39319;52.944;5.928;2022-09-27T13:15:34;14.40;96.80
53422;DHT22;39319;52.944;5.928;2022-09-27T13:18:15;14.30;96.90
53422;DHT22;39319;52.944;5.928;2022-09-27T13:20:54;14.30;96.10
53422;DHT22;39319;52.944;5.928;2022-09-27T13:30:59;13.80;96.70
53422;DHT22;39319;52.944;5.928;2022-09-27T13:33:49;13.80;96.90
53422;DHT22;39319;52.944;5.928;2022-09-27T13:39:15;13.50;97.50
53422;DHT22;39319;52.944;5.928;2022-09-27T13:49:35;13.40;99.40
53422;DHT22;39319;52.944;5.928;2022-09-27T13:54:56;13.40;99.60
53422;DHT22;39319;52.944;5.928;2022-09-27T14:00:24;13.50;99.90
53422;DHT22;39319;52.944;5.928;2022-09-27T14:03:03;13.50;99.70
53422;DHT22;39319;52.944;5.928;2022-09-27T14:05:38;13.50;99.70
53422;DHT22;39319;52.944;5.928;2022-09-27T14:08:05;13.40;99.40
53422;DHT22;39319;52.944;5.928;2022-09-27T14:10:42;13.50;99.60
53422;DHT22;39319;52.944;5.928;2022-09-27T14:13:10;13.50;99.90
53422;DHT22;39319;52.944;5.928;2022-09-27T14:15:43;13.50;99.90
53422;DHT22;39319;52.944;5.928;2022-09-27T14:18:11;13.50;99.90
53422;DHT22;39319;52.944;5.928;2022-09-27T14:20:39;13.50;99.70
53422;DHT22;39319;52.944;5.928;2022-09-27T14:23:31;13.50;99.60
53422;DHT22;39319;52.944;5.928;2022-09-27T14:25:56;13.50;99.90
53422;DHT22;39319;52.944;5.928;2022-09-27T14:28:30;13.50;99.90
53422;DHT22;39319;52.944;5.928;2022-09-27T14:31:14;13.60;99.70
53422;DHT22;39319;52.944;5.928;2022-09-27T14:33:42;13.60;99.50
53422;DHT22;39319;52.944;5.928;2022-09-27T14:36:23;13.60;99.50
53422;DHT22;39319;52.944;5.928;2022-09-27T14:39:31;13.60;99.80
53422;DHT22;39319;52.944;5.928;2022-09-27T14:41:58;13.70;99.40
53422;DHT22;39319;52.944;5.928;2022-09-27T14:44:25;13.70;99.60
53422;DHT22;39319;52.944;5.928;2022-09-27T14:47:08;13.70;99.90
53422;DHT22;39319;52.944;5.928;2022-09-27T14:49:34;13.70;99.50
53422;DHT22;39319;52.944;5.928;2022-09-27T14:52:13;13.70;99.90
53422;DHT22;39319;52.944;5.928;2022-09-27T14:54:39;13.70;99.90
53422;DHT22;39319;52.944;5.928;2022-09-27T14:57:06;13.70;99.90
53422;DHT22;39319;52.944;5.928;2022-09-27T14:59:34;13.70;99.90
53422;DHT22;39319;52.944;5.928;2022-09-27T15:02:13;13.70;99.80
53422;DHT22;39319;52.944;5.928;2022-09-27T15:04:43;13.70;99.70
53422;DHT22;39319;52.944;5.928;2022-09-27T15:07:11;13.70;99.80
53422;DHT22;39319;52.944;5.928;2022-09-27T15:09:38;13.70;99.10
53422;DHT22;39319;52.944;5.928;2022-09-27T15:12:05;13.60;98.10
53422;DHT22;39319;52.944;5.928;2022-09-27T15:14:33;13.60;98.30
53422;DHT22;39319;52.944;5.928;2022-09-27T15:17:02;13.60;98.10
53422;DHT22;39319;52.944;5.928;2022-09-27T15:19:30;13.50;98.00
53422;DHT22;39319;52.944;5.928;2022-09-27T15:22:21;13.40;97.40
53422;DHT22;39319;52.944;5.928;2022-09-27T15:24:50;13.30;96.90
53422;DHT22;39319;52.944;5.928;2022-09-27T15:27:18;13.20;97.20
53422;DHT22;39319;52.944;5.928;2022-09-27T15:29:55;13.10;96.80
53422;DHT22;39319;52.944;5.928;2022-09-27T15:32:23;12.90;97.10
53422;DHT22;39319;52.944;5.928;2022-09-27T15:34:50;12.90;97.50
53422;DHT22;39319;52.944;5.928;2022-09-27T15:37:26;12.90;97.70
53422;DHT22;39319;52.944;5.928;2022-09-27T15:39:53;12.90;97.50
53422;DHT22;39319;52.944;5.928;2022-09-27T15:42:19;12.80;97.40
53422;DHT22;39319;52.944;5.928;2022-09-27T15:44:52;12.80;97.70
53422;DHT22;39319;52.944;5.928;2022-09-27T15:52:53;12.70;97.40
53422;DHT22;39319;52.944;5.928;2022-09-27T15:55:26;12.60;97.70
53422;DHT22;39319;52.944;5.928;2022-09-27T15:57:55;12.60;97.80
53422;DHT22;39319;52.944;5.928;2022-09-27T16:00:24;12.50;98.00
53422;DHT22;39319;52.944;5.928;2022-09-27T16:02:51;12.50;98.00
53422;DHT22;39319;52.944;5.928;2022-09-27T16:05:18;12.50;98.20
53422;DHT22;39319;52.944;5.928;2022-09-27T16:07:44;12.40;97.90
53422;DHT22;39319;52.944;5.928;2022-09-27T16:10:18;12.40;98.00
53422;DHT22;39319;52.944;5.928;2022-09-27T16:12:44;12.40;98.10
53422;DHT22;39319;52.944;5.928;2022-09-27T16:15:12;12.40;97.70
53422;DHT22;39319;52.944;5.928;2022-09-27T16:17:38;12.30;97.00
53422;DHT22;39319;52.944;5.928;2022-09-27T16:20:05;12.30;96.90
53422;DHT22;39319;52.944;5.928;2022-09-27T16:22:32;12.30;96.80
53422;DHT22;39319;52.944;5.928;2022-09-27T16:24:58;12.20;96.70
53422;DHT22;39319;52.944;5.928;2022-09-27T16:27:25;12.20;96.90
53422;DHT22;39319;52.944;5.928;2022-09-27T16:29:55;12.10;97.40
53422;DHT22;39319;52.944;5.928;2022-09-27T16:32:22;12.10;97.60
53422;DHT22;39319;52.944;5.928;2022-09-27T16:34:48;12.10;97.50
53422;DHT22;39319;52.944;5.928;2022-09-27T16:37:15;12.10;97.50
53422;DHT22;39319;52.944;5.928;2022-09-27T16:39:40;12.00;97.50
53422;DHT22;39319;52.944;5.928;2022-09-27T16:42:06;12.00;97.70
53422;DHT22;39319;52.944;5.928;2022-09-27T16:44:33;12.00;97.90
53422;DHT22;39319;52.944;5.928;2022-09-27T16:47:01;12.00;98.10
53422;DHT22;39319;52.944;5.928;2022-09-27T16:49:28;12.00;98.40
53422;DHT22;39319;52.944;5.928;2022-09-27T16:52:12;12.00;98.20
53422;DHT22;39319;52.944;5.928;2022-09-27T16:54:39;12.00;97.90
53422;DHT22;39319;52.944;5.928;2022-09-27T16:57:04;12.00;97.80
53422;DHT22;39319;52.944;5.928;2022-09-27T16:59:30;12.00;97.90
53422;DHT22;39319;52.944;5.928;2022-09-27T17:01:56;11.90;98.40
53422;DHT22;39319;52.944;5.928;2022-09-27T17:04:26;11.90;98.60
53422;DHT22;39319;52.944;5.928;2022-09-27T17:06:53;11.80;98.50
53422;DHT22;39319;52.944;5.928;2022-09-27T17:09:23;11.80;99.00
53422;DHT22;39319;52.944;5.928;2022-09-27T17:11:49;11.70;99.10
53422;DHT22;39319;52.944;5.928;2022-09-27T17:14:15;11.70;99.30
53422;DHT22;39319;52.944;5.928;2022-09-27T17:16:45;11.70;99.20
53422;DHT22;39319;52.944;5.928;2022-09-27T17:19:12;11.70;98.70
53422;DHT22;39319;52.944;5.928;2022-09-27T17:21:39;11.70;98.80
53422;DHT22;39319;52.944;5.928;2022-09-27T17:24:05;11.70;98.90
53422;DHT22;39319;52.944;5.928;2022-09-27T17:26:32;11.60;99.00
53422;DHT22;39319;52.944;5.928;2022-09-27T17:28:59;11.70;99.00
53422;DHT22;39319;52.944;5.928;2022-09-27T17:31:29;11.60;99.20
53422;DHT22;39319;52.944;5.928;2022-09-27T17:34:01;11.60;99.50
53422;DHT22;39319;52.944;5.928;2022-09-27T17:36:29;11.60;99.40
53422;DHT22;39319;52.944;5.928;2022-09-27T17:38:57;11.60;99.60
53422;DHT22;39319;52.944;5.928;2022-09-27T17:41:43;11.60;99.90
53422;DHT22;39319;52.944;5.928;2022-09-27T17:44:12;11.60;99.90
53422;DHT22;39319;52.944;5.928;2022-09-27T17:46:39;11.50;99.90
53422;DHT22;39319;52.944;5.928;2022-09-27T17:49:12;11.60;99.90
53422;DHT22;39319;52.944;5.928;2022-09-27T17:52:10;11.60;99.90
53422;DHT22;39319;52.944;5.928;2022-09-27T17:54:39;11.60;99.90
53422;DHT22;39319;52.944;5.928;2022-09-27T17:57:09;11.60;99.90
53422;DHT22;39319;52.944;5.928;2022-09-27T17:59:34;11.70;99.90
53422;DHT22;39319;52.944;5.928;2022-09-27T18:02:03;11.60;99.90
53422;DHT22;39319;52.944;5.928;2022-09-27T18:04:29;11.50;99.90
53422;DHT22;39319;52.944;5.928;2022-09-27T18:07:00;11.50;99.90
53422;DHT22;39319;52.944;5.928;2022-09-27T18:09:32;11.50;99.90
53422;DHT22;39319;52.944;5.928;2022-09-27T18:11:58;11.50;99.90
53422;DHT22;39319;52.944;5.928;2022-09-27T18:14:24;11.50;99.50
53422;DHT22;39319;52.944;5.928;2022-09-27T18:16:51;11.50;99.80
53422;DHT22;39319;52.944;5.928;2022-09-27T18:19:22;11.50;99.90
53422;DHT22;39319;52.944;5.928;2022-09-27T18:21:52;11.40;99.90
53422;DHT22;39319;52.944;5.928;2022-09-27T18:24:21;11.40;99.90
53422;DHT22;39319;52.944;5.928;2022-09-27T18:26:47;11.40;99.70
53422;DHT22;39319;52.944;5.928;2022-09-27T18:29:15;11.40;99.70
53422;DHT22;39319;52.944;5.928;2022-09-27T18:31:46;11.40;99.80
53422;DHT22;39319;52.944;5.928;2022-09-27T18:34:15;11.40;99.60
53422;DHT22;39319;52.944;5.928;2022-09-27T18:36:46;11.30;99.90
53422;DHT22;39319;52.944;5.928;2022-09-27T18:39:13;11.30;99.90
53422;DHT22;39319;52.944;5.928;2022-09-27T18:41:44;11.20;99.90
53422;DHT22;39319;52.944;5.928;2022-09-27T18:44:13;11.20;99.90
53422;DHT22;39319;52.944;5.928;2022-09-27T18:46:39;11.20;99.90
53422;DHT22;39319;52.944;5.928;2022-09-27T18:49:10;11.10;99.90
53422;DHT22;39319;52.944;5.928;2022-09-27T18:51:37;11.10;99.90
53422;DHT22;39319;52.944;5.928;2022-09-27T18:54:17;11.10;99.90
53422;DHT22;39319;52.944;5.928;2022-09-27T18:56:44;11.10;99.90
53422;DHT22;39319;52.944;5.928;2022-09-27T18:59:13;11.10;99.90
53422;DHT22;39319;52.944;5.928;2022-09-27T19:01:45;11.00;99.90